createdAt,value
2023-09-24T00:00:29.364Z,11.80
2023-09-24T00:02:56.246Z,11.80
2023-09-24T00:05:23.184Z,11.80
2023-09-24T00:07:49.998Z,11.70
2023-09-24T00:10:18.241Z,11.70
2023-09-24T00:12:45.108Z,11.70
2023-09-24T00:15:12.029Z,11.60
2023-09-24T00:17:39.011Z,11.60
2023-09-24T00:20:07.334Z,11.60
2023-09-24T00:22:34.136Z,11.60
2023-09-24T00:25:00.934Z,11.50
2023-09-24T00:27:29.095Z,11.50
2023-09-24T00:29:55.954Z,11.60
2023-09-24T00:32:22.857Z,11.60
2023-09-24T00:34:49.693Z,11.60
2023-09-24T00:37:16.510Z,11.70
2023-09-24T00:39:43.350Z,11.70
2023-09-24T00:42:10.134Z,11.70
2023-09-24T00:44:38.377Z,11.70
2023-09-24T00:47:05.382Z,11.70
2023-09-24T00:49:32.339Z,11.70
2023-09-24T00:51:59.276Z,11.80
2023-09-24T00:54:26.296Z,11.80
2023-09-24T00:56:53.580Z,11.80
2023-09-24T00:59:20.550Z,11.80
2023-09-24T01:01:49.942Z,11.70
2023-09-24T01:04:16.976Z,11.70
2023-09-24T01:06:43.997Z,11.70
2023-09-24T01:09:10.988Z,11.60
2023-09-24T01:11:37.862Z,11.50
2023-09-24T01:14:04.852Z,11.50
2023-09-24T01:16:31.969Z,11.40
2023-09-24T01:19:00.191Z,11.40
2023-09-24T01:21:28.962Z,11.30
2023-09-24T01:24:00.691Z,11.20
2023-09-24T01:26:27.764Z,11.20
2023-09-24T01:28:54.665Z,11.20
2023-09-24T01:31:21.653Z,11.20
2023-09-24T01:33:49.832Z,11.20
2023-09-24T01:36:17.494Z,11.10
2023-09-24T01:38:44.512Z,11.00
2023-09-24T01:41:12.878Z,10.90
2023-09-24T01:43:40.385Z,10.80
2023-09-24T01:46:10.486Z,10.60
2023-09-24T01:48:37.676Z,10.50
2023-09-24T01:51:07.984Z,10.40
2023-09-24T01:53:35.223Z,10.40
2023-09-24T01:56:02.244Z,10.20
2023-09-24T01:58:30.548Z,10.10
2023-09-24T02:00:57.538Z,10.10
2023-09-24T02:03:24.578Z,10.00
2023-09-24T02:05:51.484Z,10.00
2023-09-24T02:08:18.366Z,10.00
2023-09-24T02:10:45.492Z,10.00
2023-09-24T02:13:12.462Z,10.00
2023-09-24T02:15:42.446Z,9.90
2023-09-24T02:18:09.409Z,9.90
2023-09-24T02:20:36.687Z,9.80
2023-09-24T02:23:04.860Z,9.70
2023-09-24T02:25:33.908Z,9.60
2023-09-24T02:28:01.647Z,9.50
2023-09-24T02:30:31.508Z,9.50
2023-09-24T02:33:01.699Z,9.40
2023-09-24T02:35:29.189Z,9.40
2023-09-24T02:37:56.240Z,9.40
2023-09-24T02:40:23.757Z,9.30
2023-09-24T02:42:51.871Z,9.30
2023-09-24T02:45:18.858Z,9.30
2023-09-24T02:47:47.159Z,9.30
2023-09-24T02:50:15.602Z,9.30
2023-09-24T02:52:42.935Z,9.30
2023-09-24T02:55:11.211Z,9.30
2023-09-24T02:57:38.419Z,9.30
2023-09-24T03:00:07.371Z,9.20
2023-09-24T03:02:34.343Z,9.20
2023-09-24T03:05:01.322Z,9.20
2023-09-24T03:07:29.699Z,9.20
2023-09-24T03:09:56.848Z,9.20
2023-09-24T03:12:23.789Z,9.20
2023-09-24T03:14:50.745Z,9.20
2023-09-24T03:17:17.573Z,9.10
2023-09-24T03:19:44.434Z,9.10
2023-09-24T03:22:11.313Z,9.10
2023-09-24T03:24:39.615Z,9.10
2023-09-24T03:27:06.498Z,9.10
2023-09-24T03:29:33.378Z,9.10
2023-09-24T03:32:00.428Z,9.10
2023-09-24T03:34:27.308Z,9.00
2023-09-24T03:36:54.138Z,8.90
2023-09-24T03:39:21.059Z,8.90
2023-09-24T03:41:49.478Z,8.80
2023-09-24T03:44:16.499Z,8.80
2023-09-24T03:46:43.478Z,8.70
2023-09-24T03:49:10.448Z,8.70
2023-09-24T03:51:37.377Z,8.70
2023-09-24T03:54:04.708Z,8.70
2023-09-24T03:56:31.661Z,8.70
2023-09-24T03:59:00.057Z,8.70
2023-09-24T04:01:26.971Z,8.70
2023-09-24T04:03:54.139Z,8.60
2023-09-24T04:06:21.328Z,8.60
2023-09-24T04:08:48.303Z,8.50
2023-09-24T04:11:15.190Z,8.50
2023-09-24T04:13:42.237Z,8.50
2023-09-24T04:16:12.213Z,8.50
2023-09-24T04:18:39.395Z,8.60
2023-09-24T04:21:15.332Z,8.60
2023-09-24T04:23:42.505Z,8.60
2023-09-24T04:26:17.248Z,8.50
2023-09-24T04:28:44.153Z,8.40
2023-09-24T04:31:13.044Z,8.40
2023-09-24T04:33:40.169Z,8.40
2023-09-24T04:36:07.261Z,8.30
2023-09-24T04:38:34.213Z,8.30
2023-09-24T04:41:01.154Z,8.30
2023-09-24T04:43:28.089Z,8.20
2023-09-24T04:45:55.136Z,8.20
2023-09-24T04:48:23.533Z,8.20
2023-09-24T04:50:55.333Z,8.20
2023-09-24T04:53:22.279Z,8.20
2023-09-24T04:55:49.175Z,8.20
2023-09-24T04:58:16.220Z,8.10
2023-09-24T05:00:43.161Z,8.10
2023-09-24T05:03:10.119Z,8.10
2023-09-24T05:05:42.227Z,8.00
2023-09-24T05:08:09.500Z,8.00
2023-09-24T05:10:36.538Z,8.00
2023-09-24T05:13:03.893Z,8.00
2023-09-24T05:15:30.726Z,8.00
2023-09-24T05:17:57.732Z,8.10
2023-09-24T05:20:24.682Z,8.10
2023-09-24T05:22:53.031Z,8.20
2023-09-24T05:25:19.998Z,8.20
2023-09-24T05:27:46.904Z,8.30
2023-09-24T05:30:13.968Z,8.30
2023-09-24T05:32:40.954Z,8.40
2023-09-24T05:35:08.510Z,8.40
2023-09-24T05:37:35.407Z,8.50
2023-09-24T05:40:04.550Z,8.50
2023-09-24T05:42:31.516Z,8.50
2023-09-24T05:44:59.706Z,8.60
2023-09-24T05:47:26.840Z,8.60
2023-09-24T05:49:54.130Z,8.70
2023-09-24T05:52:21.064Z,8.70
2023-09-24T05:54:48.071Z,8.80
2023-09-24T05:57:16.876Z,8.80
2023-09-24T05:59:43.881Z,8.90
2023-09-24T06:02:10.842Z,9.00
2023-09-24T06:04:37.961Z,9.00
2023-09-24T06:07:04.969Z,9.10
2023-09-24T06:09:31.844Z,9.10
2023-09-24T06:11:58.822Z,9.10
2023-09-24T06:14:27.247Z,9.20
2023-09-24T06:16:54.124Z,9.20
2023-09-24T06:19:21.347Z,9.30
2023-09-24T06:21:50.463Z,9.30
2023-09-24T06:24:17.532Z,9.40
2023-09-24T06:26:45.704Z,9.40
2023-09-24T06:29:12.844Z,9.60
2023-09-24T06:31:41.373Z,9.60
2023-09-24T06:34:08.855Z,9.70
2023-09-24T06:36:35.726Z,9.80
2023-09-24T06:39:02.738Z,9.90
2023-09-24T06:41:31.469Z,10.00
2023-09-24T06:43:58.475Z,10.00
2023-09-24T06:46:25.400Z,10.10
2023-09-24T06:48:54.075Z,10.20
2023-09-24T06:51:21.295Z,10.30
2023-09-24T06:53:48.428Z,10.40
2023-09-24T06:56:15.436Z,10.50
2023-09-24T06:58:42.451Z,10.60
2023-09-24T07:01:09.337Z,10.80
2023-09-24T07:03:37.337Z,10.80
2023-09-24T07:06:06.196Z,11.00
2023-09-24T07:08:33.336Z,11.10
2023-09-24T07:11:28.013Z,11.20
2023-09-24T07:13:54.805Z,11.30
2023-09-24T07:16:22.654Z,11.40
2023-09-24T07:18:49.896Z,11.50
2023-09-24T07:21:31.723Z,11.60
2023-09-24T07:24:00.858Z,11.70
2023-09-24T07:29:02.144Z,11.90
2023-09-24T07:31:30.478Z,12.00
2023-09-24T07:33:59.298Z,12.10
2023-09-24T07:38:57.779Z,12.20
2023-09-24T07:41:24.881Z,12.30
2023-09-24T07:43:51.715Z,12.40
2023-09-24T07:46:18.716Z,12.50
2023-09-24T07:48:47.079Z,12.50
2023-09-24T07:51:14.449Z,12.70
2023-09-24T07:53:42.611Z,12.80
2023-09-24T07:56:09.525Z,12.90
2023-09-24T07:58:37.823Z,13.00
2023-09-24T08:01:06.966Z,13.10
2023-09-24T08:03:34.425Z,13.20
2023-09-24T08:06:02.110Z,13.30
2023-09-24T08:08:43.729Z,13.30
2023-09-24T08:11:18.382Z,13.50
2023-09-24T08:13:45.172Z,13.50
2023-09-24T08:16:12.234Z,13.70
2023-09-24T08:18:39.339Z,13.80
2023-09-24T08:21:06.491Z,13.90
2023-09-24T08:23:33.613Z,14.20
2023-09-24T08:26:00.718Z,14.40
2023-09-24T08:28:28.946Z,14.60
2023-09-24T08:30:55.740Z,14.80
2023-09-24T08:33:22.708Z,15.10
2023-09-24T08:35:49.690Z,15.40
2023-09-24T08:38:16.554Z,15.70
2023-09-24T08:40:43.433Z,16.00
2023-09-24T08:43:15.400Z,16.30
2023-09-24T08:45:44.020Z,16.60
2023-09-24T08:48:11.604Z,16.80
2023-09-24T08:50:40.961Z,17.00
2023-09-24T08:53:10.870Z,17.20
2023-09-24T08:55:38.140Z,17.50
2023-09-24T08:58:05.067Z,17.80
2023-09-24T09:00:32.069Z,18.10
2023-09-24T09:03:02.556Z,18.40
2023-09-24T09:05:29.586Z,18.60
2023-09-24T09:07:57.180Z,19.00
2023-09-24T09:10:27.794Z,19.20
2023-09-24T09:13:08.198Z,19.40
2023-09-24T09:15:35.228Z,19.60
2023-09-24T09:18:04.083Z,19.90
2023-09-24T09:20:41.892Z,19.80
2023-09-24T09:23:09.130Z,19.90
2023-09-24T09:25:49.315Z,19.90
2023-09-24T09:28:22.959Z,19.70
2023-09-24T09:30:59.056Z,19.50
2023-09-24T09:33:28.355Z,19.20
2023-09-24T09:35:55.784Z,18.90
2023-09-24T09:38:22.690Z,18.70
2023-09-24T09:40:54.134Z,18.40
2023-09-24T09:43:23.290Z,18.20
2023-09-24T09:45:52.589Z,18.00
2023-09-24T09:48:28.053Z,17.70
2023-09-24T09:51:00.897Z,17.30
2023-09-24T09:53:31.013Z,17.10
2023-09-24T09:55:58.848Z,17.00
2023-09-24T09:58:27.260Z,16.90
2023-09-24T10:00:54.921Z,17.00
2023-09-24T10:03:22.855Z,17.10
2023-09-24T10:05:51.984Z,17.20
2023-09-24T10:08:38.377Z,17.30
2023-09-24T10:11:05.579Z,17.50
2023-09-24T10:13:48.925Z,17.90
2023-09-24T10:16:36.614Z,18.20
2023-09-24T10:19:05.306Z,18.40
2023-09-24T10:21:34.720Z,18.70
2023-09-24T10:24:48.469Z,19.00
2023-09-24T10:27:15.626Z,19.30
2023-09-24T10:30:05.540Z,19.60
2023-09-24T10:32:46.470Z,19.60
2023-09-24T10:35:13.594Z,19.50
2023-09-24T10:38:01.309Z,19.10
2023-09-24T10:40:28.335Z,18.50
2023-09-24T10:43:15.931Z,18.20
2023-09-24T10:45:43.705Z,18.00
2023-09-24T10:48:10.937Z,17.90
2023-09-24T10:50:40.946Z,17.60
2023-09-24T10:53:09.230Z,17.50
2023-09-24T10:55:38.749Z,17.50
2023-09-24T10:58:09.564Z,17.40
2023-09-24T11:00:36.764Z,17.60
2023-09-24T11:03:05.230Z,17.80
2023-09-24T11:05:35.909Z,17.90
2023-09-24T11:08:03.034Z,18.20
2023-09-24T11:10:31.334Z,18.50
2023-09-24T11:12:59.406Z,18.90
2023-09-24T11:15:28.771Z,19.20
2023-09-24T11:17:55.664Z,19.50
2023-09-24T11:20:22.638Z,19.80
2023-09-24T11:22:56.368Z,20.10
2023-09-24T11:25:24.213Z,20.30
2023-09-24T11:27:53.459Z,20.60
2023-09-24T11:30:21.415Z,20.90
2023-09-24T11:32:50.360Z,21.10
2023-09-24T11:35:18.937Z,21.30
2023-09-24T11:37:48.366Z,21.50
2023-09-24T11:40:25.980Z,21.40
2023-09-24T11:42:56.748Z,21.40
2023-09-24T11:45:45.919Z,21.30
2023-09-24T11:48:14.232Z,21.30
2023-09-24T11:50:42.999Z,21.30
2023-09-24T11:53:10.127Z,21.20
2023-09-24T11:55:37.248Z,20.80
2023-09-24T11:58:06.006Z,20.60
2023-09-24T12:00:33.198Z,20.30
2023-09-24T12:03:00.788Z,20.20
2023-09-24T12:05:33.826Z,20.00
2023-09-24T12:08:01.320Z,19.80
2023-09-24T12:10:28.257Z,19.70
2023-09-24T12:12:55.105Z,19.60
2023-09-24T12:15:23.317Z,19.50
2023-09-24T12:17:50.242Z,19.30
2023-09-24T12:20:17.245Z,19.30
2023-09-24T12:22:44.257Z,19.20
2023-09-24T12:25:12.004Z,19.10
2023-09-24T12:27:39.607Z,19.00
2023-09-24T12:30:07.992Z,19.10
2023-09-24T12:32:36.305Z,19.10
2023-09-24T12:35:03.603Z,19.30
2023-09-24T12:37:30.683Z,19.50
2023-09-24T12:39:58.720Z,20.10
2023-09-24T12:42:25.626Z,21.30
2023-09-24T12:44:52.447Z,22.80
2023-09-24T12:47:19.259Z,24.30
2023-09-24T12:49:47.755Z,25.50
2023-09-24T12:52:14.580Z,26.80
2023-09-24T12:54:41.383Z,27.90
2023-09-24T12:57:08.297Z,28.20
2023-09-24T12:59:35.179Z,28.10
2023-09-24T13:02:02.072Z,27.60
2023-09-24T13:04:29.126Z,27.40
2023-09-24T13:06:57.384Z,27.70
2023-09-24T13:09:24.220Z,28.70
2023-09-24T13:11:51.104Z,29.60
2023-09-24T13:14:17.937Z,30.20
2023-09-24T13:16:44.776Z,30.70
2023-09-24T13:19:11.653Z,31.30
2023-09-24T13:21:39.295Z,31.90
2023-09-24T13:24:08.665Z,32.60
2023-09-24T13:29:15.759Z,33.30
2023-09-24T13:31:43.212Z,33.60
2023-09-24T13:34:10.042Z,34.10
2023-09-24T13:36:36.880Z,34.80
2023-09-24T13:39:03.992Z,35.40
2023-09-24T13:41:32.517Z,36.10
2023-09-24T13:43:59.446Z,36.60
2023-09-24T13:46:26.367Z,37.00
2023-09-24T13:48:53.249Z,37.30
2023-09-24T13:51:20.160Z,37.50
2023-09-24T13:53:47.345Z,36.80
2023-09-24T13:56:14.749Z,35.60
2023-09-24T13:58:43.168Z,33.70
2023-09-24T14:01:10.418Z,31.40
2023-09-24T14:03:37.770Z,30.00
2023-09-24T14:06:04.823Z,30.60
2023-09-24T14:08:31.896Z,32.10
2023-09-24T14:11:00.173Z,33.30
2023-09-24T14:13:27.088Z,34.00
2023-09-24T14:15:55.337Z,35.10
2023-09-24T14:18:22.279Z,36.20
2023-09-24T14:20:49.389Z,37.10
2023-09-24T14:23:16.222Z,38.00
2023-09-24T14:25:43.490Z,38.40
2023-09-24T14:28:10.452Z,38.50
2023-09-24T14:30:37.654Z,38.50
2023-09-24T14:33:06.655Z,38.80
2023-09-24T14:35:33.693Z,39.00
2023-09-24T14:38:00.536Z,38.60
2023-09-24T14:40:27.464Z,36.50
2023-09-24T14:42:54.296Z,34.20
2023-09-24T14:45:21.211Z,33.80
2023-09-24T14:47:48.059Z,34.90
2023-09-24T14:50:16.405Z,36.50
2023-09-24T14:52:43.410Z,37.70
2023-09-24T14:55:10.635Z,38.90
2023-09-24T14:57:37.456Z,39.70
2023-09-24T15:00:05.812Z,40.00
2023-09-24T15:02:32.864Z,40.20
2023-09-24T15:04:59.800Z,40.30
2023-09-24T15:07:28.023Z,40.60
2023-09-24T15:09:54.844Z,40.70
2023-09-24T15:12:21.691Z,39.80
2023-09-24T15:14:48.591Z,37.60
2023-09-24T15:17:15.396Z,34.90
2023-09-24T15:19:42.241Z,32.00
2023-09-24T15:22:09.073Z,29.60
2023-09-24T15:24:37.291Z,27.60
2023-09-24T15:27:04.171Z,25.90
2023-09-24T15:29:31.077Z,24.60
2023-09-24T15:31:57.898Z,23.60
2023-09-24T15:34:26.945Z,22.90
2023-09-24T15:36:53.860Z,22.40
2023-09-24T15:39:20.695Z,23.00
2023-09-24T15:41:48.928Z,25.70
2023-09-24T15:44:15.899Z,28.50
2023-09-24T15:46:42.780Z,30.80
2023-09-24T15:49:09.730Z,32.60
2023-09-24T15:51:36.641Z,33.80
2023-09-24T15:54:03.669Z,34.70
2023-09-24T15:56:30.575Z,35.30
2023-09-24T15:58:58.802Z,35.60
2023-09-24T16:01:25.712Z,35.90
2023-09-24T16:03:52.916Z,36.00
2023-09-24T16:06:19.904Z,36.10
2023-09-24T16:08:46.805Z,36.00
2023-09-24T16:11:17.217Z,35.90
2023-09-24T16:13:44.136Z,35.70
2023-09-24T16:16:12.426Z,34.80
2023-09-24T16:18:39.337Z,34.10
2023-09-24T16:21:06.468Z,33.80
2023-09-24T16:23:33.282Z,33.70
2023-09-24T16:26:07.443Z,33.40
2023-09-24T16:28:34.355Z,33.00
2023-09-24T16:31:04.288Z,32.80
2023-09-24T16:33:32.986Z,32.40
2023-09-24T16:35:59.947Z,31.90
2023-09-24T16:38:26.830Z,31.30
2023-09-24T16:40:58.951Z,30.80
2023-09-24T16:43:26.299Z,30.10
2023-09-24T16:45:53.800Z,29.40
2023-09-24T16:48:21.007Z,28.90
2023-09-24T16:50:49.345Z,28.40
2023-09-24T16:53:16.331Z,27.80
2023-09-24T16:55:43.130Z,27.20
2023-09-24T16:58:09.941Z,26.50
2023-09-24T17:00:37.284Z,25.70
2023-09-24T17:03:05.319Z,25.00
2023-09-24T17:05:35.222Z,24.20
2023-09-24T17:08:03.960Z,23.30
2023-09-24T17:10:31.732Z,22.20
2023-09-24T17:12:58.860Z,21.30
2023-09-24T17:15:27.198Z,20.30
2023-09-24T17:17:54.174Z,19.50
2023-09-24T17:20:23.815Z,18.90
2023-09-24T17:22:50.730Z,18.30
2023-09-24T17:25:19.082Z,17.90
2023-09-24T17:27:46.294Z,17.50
2023-09-24T17:30:14.103Z,17.10
2023-09-24T17:32:41.423Z,16.80
2023-09-24T17:35:08.687Z,16.50
2023-09-24T17:37:35.502Z,16.30
2023-09-24T17:40:02.388Z,16.10
2023-09-24T17:42:30.648Z,15.90
2023-09-24T17:44:57.542Z,15.80
2023-09-24T17:47:24.369Z,15.60
2023-09-24T17:49:51.174Z,15.50
2023-09-24T17:52:18.014Z,15.40
2023-09-24T17:54:44.802Z,15.30
2023-09-24T17:57:11.707Z,15.20
2023-09-24T17:59:40.149Z,15.10
2023-09-24T18:02:07.821Z,15.00
2023-09-24T18:04:34.854Z,14.90
2023-09-24T18:07:01.692Z,14.80
2023-09-24T18:09:28.523Z,14.80
2023-09-24T18:11:55.404Z,14.60
2023-09-24T18:14:22.231Z,14.60
2023-09-24T18:16:50.420Z,14.50
2023-09-24T18:19:18.263Z,14.40
2023-09-24T18:21:45.134Z,14.30
2023-09-24T18:24:12.050Z,14.30
2023-09-24T18:26:38.971Z,14.10
2023-09-24T18:29:05.881Z,14.10
2023-09-24T18:31:32.754Z,14.00
2023-09-24T18:34:01.044Z,13.90
2023-09-24T18:36:27.994Z,13.80
2023-09-24T18:38:54.912Z,13.80
2023-09-24T18:41:21.758Z,13.70
2023-09-24T18:43:48.793Z,13.60
2023-09-24T18:46:15.906Z,13.50
2023-09-24T18:48:42.828Z,13.50
2023-09-24T18:51:15.127Z,13.40
2023-09-24T18:53:42.142Z,13.40
2023-09-24T18:56:08.987Z,13.30
2023-09-24T18:58:35.848Z,13.20
2023-09-24T19:01:07.153Z,13.10
2023-09-24T19:03:34.044Z,13.10
2023-09-24T19:06:04.906Z,13.00
2023-09-24T19:08:33.100Z,13.00
2023-09-24T19:11:00.036Z,12.90
2023-09-24T19:13:26.980Z,12.80
2023-09-24T19:16:01.353Z,12.70
2023-09-24T19:18:28.246Z,12.60
2023-09-24T19:20:55.153Z,12.60
2023-09-24T19:23:21.995Z,12.50
2023-09-24T19:25:50.255Z,12.50
2023-09-24T19:28:17.136Z,12.40
2023-09-24T19:30:44.471Z,12.40
2023-09-24T19:33:11.501Z,12.40
2023-09-24T19:35:38.479Z,12.40
2023-09-24T19:38:05.501Z,12.40
2023-09-24T19:40:32.360Z,12.30
2023-09-24T19:43:00.674Z,12.30
2023-09-24T19:45:27.665Z,12.20
2023-09-24T19:47:54.879Z,12.20
2023-09-24T19:50:22.058Z,12.10
2023-09-24T19:52:49.049Z,12.10
2023-09-24T19:55:16.011Z,12.10
2023-09-24T19:57:42.865Z,12.00
2023-09-24T20:00:12.649Z,11.90
2023-09-24T20:02:39.658Z,11.80
2023-09-24T20:05:07.564Z,11.70
2023-09-24T20:07:34.465Z,11.70
2023-09-24T20:10:04.398Z,11.70
2023-09-24T20:12:31.313Z,11.60
2023-09-24T20:14:58.598Z,11.60
2023-09-24T20:17:26.961Z,11.60
2023-09-24T20:19:53.829Z,11.50
2023-09-24T20:22:20.653Z,11.50
2023-09-24T20:24:50.742Z,11.40
2023-09-24T20:27:18.382Z,11.30
2023-09-24T20:29:45.479Z,11.30
2023-09-24T20:32:12.434Z,11.30
2023-09-24T20:34:40.795Z,11.20
2023-09-24T20:37:07.678Z,11.20
2023-09-24T20:39:34.951Z,11.20
2023-09-24T20:42:01.894Z,11.10
2023-09-24T20:44:31.727Z,11.10
2023-09-24T20:46:59.837Z,11.10
2023-09-24T20:49:26.760Z,11.00
2023-09-24T20:51:55.430Z,11.00
2023-09-24T20:54:23.109Z,10.90
2023-09-24T20:56:52.212Z,10.90
2023-09-24T20:59:23.224Z,10.80
2023-09-24T21:01:50.200Z,10.70
2023-09-24T21:04:17.047Z,10.70
2023-09-24T21:06:44.033Z,10.60
2023-09-24T21:09:12.426Z,10.60
2023-09-24T21:11:39.308Z,10.50
2023-09-24T21:14:06.372Z,10.50
2023-09-24T21:16:33.224Z,10.40
2023-09-24T21:19:00.050Z,10.40
2023-09-24T21:21:28.162Z,10.40
2023-09-24T21:23:55.094Z,10.30
2023-09-24T21:26:23.482Z,10.30
2023-09-24T21:28:50.530Z,10.30
2023-09-24T21:31:18.061Z,10.30
2023-09-24T21:33:45.003Z,10.20
2023-09-24T21:36:11.930Z,10.20
2023-09-24T21:38:38.801Z,10.20
2023-09-24T21:41:05.814Z,10.20
2023-09-24T21:43:34.164Z,10.20
2023-09-24T21:46:02.306Z,10.20
2023-09-24T21:48:29.481Z,10.20
2023-09-24T21:50:56.578Z,10.30
2023-09-24T21:53:23.483Z,10.20
2023-09-24T21:55:50.970Z,10.30
2023-09-24T21:58:18.227Z,10.20
2023-09-24T22:00:46.661Z,10.20
2023-09-24T22:03:14.065Z,10.10
2023-09-24T22:05:41.592Z,10.10
2023-09-24T22:08:08.533Z,10.10
2023-09-24T22:10:35.676Z,10.00
2023-09-24T22:13:02.879Z,10.00
2023-09-24T22:15:29.971Z,9.90
2023-09-24T22:17:58.409Z,9.90
2023-09-24T22:20:25.419Z,9.80
2023-09-24T22:22:52.272Z,9.70
2023-09-24T22:25:19.400Z,9.70
2023-09-24T22:27:46.289Z,9.70
2023-09-24T22:30:14.465Z,9.60
2023-09-24T22:32:43.080Z,9.60
2023-09-24T22:35:13.406Z,9.60
2023-09-24T22:37:40.758Z,9.60
2023-09-24T22:40:08.815Z,9.50
2023-09-24T22:42:35.836Z,9.50
2023-09-24T22:45:03.622Z,9.40
2023-09-24T22:47:30.692Z,9.40
2023-09-24T22:49:58.586Z,9.30
2023-09-24T22:52:26.860Z,9.30
2023-09-24T22:54:53.687Z,9.20
2023-09-24T22:57:20.594Z,9.20
2023-09-24T22:59:47.441Z,9.20
2023-09-24T23:02:14.282Z,9.20
2023-09-24T23:04:41.239Z,9.20
2023-09-24T23:07:08.287Z,9.20
2023-09-24T23:09:37.041Z,9.20
2023-09-24T23:12:04.185Z,9.20
2023-09-24T23:14:31.058Z,9.20
2023-09-24T23:16:57.997Z,9.10
2023-09-24T23:19:24.945Z,9.10
2023-09-24T23:21:51.899Z,9.00
2023-09-24T23:24:18.848Z,9.00
2023-09-24T23:26:47.120Z,9.00
2023-09-24T23:29:14.002Z,9.00
2023-09-24T23:31:40.988Z,8.90
2023-09-24T23:34:09.828Z,8.90
2023-09-24T23:36:38.137Z,8.90
2023-09-24T23:39:05.232Z,8.90
2023-09-24T23:41:32.124Z,8.90
2023-09-24T23:44:00.365Z,9.00
2023-09-24T23:46:27.364Z,8.90
2023-09-24T23:48:54.243Z,8.90
2023-09-24T23:51:21.135Z,8.90
2023-09-24T23:53:47.961Z,8.90
2023-09-24T23:56:14.809Z,8.90
2023-09-24T23:58:41.680Z,8.90
